sensor_id;sensor_type;location;lat;lon;timestamp;temperature;humidity
40756;DHT22;26461;45.630;9.418;2023-09-19T00:01:35;21.40;82.20
40756;DHT22;26461;45.630;9.418;2023-09-19T00:04:48;21.40;82.30
40756;DHT22;26461;45.630;9.418;2023-09-19T00:07:57;21.40;82.40
40756;DHT22;26461;45.630;9.418;2023-09-19T00:11:08;21.30;82.40
40756;DHT22;26461;45.630;9.418;2023-09-19T00:14:26;21.30;82.60
40756;DHT22;26461;45.630;9.418;2023-09-19T00:17:42;21.30;82.60
40756;DHT22;26461;45.630;9.418;2023-09-19T00:20:51;21.30;82.50
40756;DHT22;26461;45.630;9.418;2023-09-19T00:23:59;21.20;82.40
40756;DHT22;26461;45.630;9.418;2023-09-19T00:27:05;21.20;82.40
40756;DHT22;26461;45.630;9.418;2023-09-19T00:30:12;21.20;82.30
40756;DHT22;26461;45.630;9.418;2023-09-19T00:33:31;21.20;82.10
40756;DHT22;26461;45.630;9.418;2023-09-19T00:36:42;21.20;82.30
40756;DHT22;26461;45.630;9.418;2023-09-19T00:39:53;21.20;82.40
40756;DHT22;26461;45.630;9.418;2023-09-19T00:42:59;21.20;82.40
40756;DHT22;26461;45.630;9.418;2023-09-19T00:46:06;21.20;82.20
40756;DHT22;26461;45.630;9.418;2023-09-19T00:49:18;21.10;82.10
40756;DHT22;26461;45.630;9.418;2023-09-19T00:52:26;21.20;82.20
40756;DHT22;26461;45.630;9.418;2023-09-19T00:55:41;21.10;82.20
40756;DHT22;26461;45.630;9.418;2023-09-19T00:58:53;21.10;82.00
40756;DHT22;26461;45.630;9.418;2023-09-19T01:02:06;21.20;82.10
40756;DHT22;26461;45.630;9.418;2023-09-19T01:05:21;21.20;82.10
40756;DHT22;26461;45.630;9.418;2023-09-19T01:08:37;21.10;82.00
40756;DHT22;26461;45.630;9.418;2023-09-19T01:11:47;21.10;82.10
40756;DHT22;26461;45.630;9.418;2023-09-19T01:15:06;21.10;81.90
40756;DHT22;26461;45.630;9.418;2023-09-19T01:26:04;21.10;81.40
40756;DHT22;26461;45.630;9.418;2023-09-19T01:29:39;21.00;81.50
40756;DHT22;26461;45.630;9.418;2023-09-19T01:32:44;21.00;81.60
40756;DHT22;26461;45.630;9.418;2023-09-19T01:35:56;21.00;81.70
40756;DHT22;26461;45.630;9.418;2023-09-19T01:39:10;21.00;81.80
40756;DHT22;26461;45.630;9.418;2023-09-19T01:42:31;20.90;81.80
40756;DHT22;26461;45.630;9.418;2023-09-19T01:46:09;20.90;82.10
40756;DHT22;26461;45.630;9.418;2023-09-19T01:49:33;20.80;82.30
40756;DHT22;26461;45.630;9.418;2023-09-19T01:53:02;20.80;82.40
40756;DHT22;26461;45.630;9.418;2023-09-19T01:56:15;20.80;83.20
40756;DHT22;26461;45.630;9.418;2023-09-19T01:59:35;20.80;82.50
40756;DHT22;26461;45.630;9.418;2023-09-19T02:02:44;20.80;82.30
40756;DHT22;26461;45.630;9.418;2023-09-19T02:05:53;20.80;82.60
40756;DHT22;26461;45.630;9.418;2023-09-19T02:08:58;20.80;82.60
40756;DHT22;26461;45.630;9.418;2023-09-19T02:12:05;20.80;82.60
40756;DHT22;26461;45.630;9.418;2023-09-19T02:15:10;20.80;82.40
40756;DHT22;26461;45.630;9.418;2023-09-19T02:18:16;20.80;82.30
40756;DHT22;26461;45.630;9.418;2023-09-19T02:21:22;20.80;82.30
40756;DHT22;26461;45.630;9.418;2023-09-19T02:24:27;20.70;82.50
40756;DHT22;26461;45.630;9.418;2023-09-19T02:27:33;20.60;82.90
40756;DHT22;26461;45.630;9.418;2023-09-19T02:30:38;20.60;83.20
40756;DHT22;26461;45.630;9.418;2023-09-19T02:33:44;20.60;83.30
40756;DHT22;26461;45.630;9.418;2023-09-19T02:36:52;20.60;83.50
40756;DHT22;26461;45.630;9.418;2023-09-19T02:40:00;20.60;83.70
40756;DHT22;26461;45.630;9.418;2023-09-19T02:43:06;20.50;83.60
40756;DHT22;26461;45.630;9.418;2023-09-19T02:46:17;20.50;83.70
40756;DHT22;26461;45.630;9.418;2023-09-19T02:49:28;20.50;83.80
40756;DHT22;26461;45.630;9.418;2023-09-19T02:52:41;20.50;83.80
40756;DHT22;26461;45.630;9.418;2023-09-19T02:55:50;20.50;83.90
40756;DHT22;26461;45.630;9.418;2023-09-19T02:58:59;20.50;83.80
40756;DHT22;26461;45.630;9.418;2023-09-19T03:02:05;20.50;84.00
40756;DHT22;26461;45.630;9.418;2023-09-19T03:05:11;20.50;84.20
40756;DHT22;26461;45.630;9.418;2023-09-19T03:08:17;20.50;84.20
40756;DHT22;26461;45.630;9.418;2023-09-19T03:11:24;20.40;84.10
40756;DHT22;26461;45.630;9.418;2023-09-19T03:14:34;20.40;84.10
40756;DHT22;26461;45.630;9.418;2023-09-19T03:17:45;20.40;84.00
40756;DHT22;26461;45.630;9.418;2023-09-19T03:20:56;20.40;83.80
40756;DHT22;26461;45.630;9.418;2023-09-19T03:24:07;20.30;83.60
40756;DHT22;26461;45.630;9.418;2023-09-19T03:27:17;20.30;83.30
40756;DHT22;26461;45.630;9.418;2023-09-19T03:30:23;20.30;83.40
40756;DHT22;26461;45.630;9.418;2023-09-19T03:33:29;20.30;83.60
40756;DHT22;26461;45.630;9.418;2023-09-19T03:36:37;20.20;83.50
40756;DHT22;26461;45.630;9.418;2023-09-19T03:39:42;20.20;83.20
40756;DHT22;26461;45.630;9.418;2023-09-19T03:42:49;20.10;82.60
40756;DHT22;26461;45.630;9.418;2023-09-19T03:45:54;20.10;82.90
40756;DHT22;26461;45.630;9.418;2023-09-19T03:49:04;20.10;83.20
40756;DHT22;26461;45.630;9.418;2023-09-19T03:52:10;20.10;83.50
40756;DHT22;26461;45.630;9.418;2023-09-19T03:55:16;20.10;83.40
40756;DHT22;26461;45.630;9.418;2023-09-19T03:58:26;20.10;83.30
40756;DHT22;26461;45.630;9.418;2023-09-19T04:01:32;20.10;83.40
40756;DHT22;26461;45.630;9.418;2023-09-19T04:04:42;20.10;83.40
40756;DHT22;26461;45.630;9.418;2023-09-19T04:07:50;20.00;83.40
40756;DHT22;26461;45.630;9.418;2023-09-19T04:11:01;20.00;83.50
40756;DHT22;26461;45.630;9.418;2023-09-19T04:14:06;20.10;83.30
40756;DHT22;26461;45.630;9.418;2023-09-19T04:17:17;20.10;83.10
40756;DHT22;26461;45.630;9.418;2023-09-19T04:20:23;20.10;83.00
40756;DHT22;26461;45.630;9.418;2023-09-19T04:23:29;20.10;83.10
40756;DHT22;26461;45.630;9.418;2023-09-19T04:26:34;20.00;83.30
40756;DHT22;26461;45.630;9.418;2023-09-19T04:29:40;20.00;83.30
40756;DHT22;26461;45.630;9.418;2023-09-19T04:32:51;20.00;83.30
40756;DHT22;26461;45.630;9.418;2023-09-19T04:36:02;20.00;83.60
40756;DHT22;26461;45.630;9.418;2023-09-19T04:39:15;19.90;83.50
40756;DHT22;26461;45.630;9.418;2023-09-19T04:42:21;20.00;83.40
40756;DHT22;26461;45.630;9.418;2023-09-19T04:45:30;19.90;82.60
40756;DHT22;26461;45.630;9.418;2023-09-19T04:48:35;19.90;82.70
40756;DHT22;26461;45.630;9.418;2023-09-19T04:51:41;19.90;83.10
40756;DHT22;26461;45.630;9.418;2023-09-19T04:54:47;19.80;83.30
40756;DHT22;26461;45.630;9.418;2023-09-19T04:57:53;19.80;83.10
40756;DHT22;26461;45.630;9.418;2023-09-19T05:01:05;19.90;83.10
40756;DHT22;26461;45.630;9.418;2023-09-19T05:04:10;19.80;82.90
40756;DHT22;26461;45.630;9.418;2023-09-19T05:07:22;19.80;83.10
40756;DHT22;26461;45.630;9.418;2023-09-19T05:10:34;19.70;83.60
40756;DHT22;26461;45.630;9.418;2023-09-19T05:13:42;19.70;83.80
40756;DHT22;26461;45.630;9.418;2023-09-19T05:16:48;19.70;83.90
40756;DHT22;26461;45.630;9.418;2023-09-19T05:19:53;19.70;84.20
40756;DHT22;26461;45.630;9.418;2023-09-19T05:23:04;19.70;84.50
40756;DHT22;26461;45.630;9.418;2023-09-19T05:26:12;19.70;84.40
40756;DHT22;26461;45.630;9.418;2023-09-19T05:29:18;19.70;84.20
40756;DHT22;26461;45.630;9.418;2023-09-19T05:32:28;19.70;83.90
40756;DHT22;26461;45.630;9.418;2023-09-19T05:35:38;19.70;84.00
40756;DHT22;26461;45.630;9.418;2023-09-19T05:38:49;19.70;84.60
40756;DHT22;26461;45.630;9.418;2023-09-19T05:42:01;19.80;84.90
40756;DHT22;26461;45.630;9.418;2023-09-19T05:45:07;19.90;84.30
40756;DHT22;26461;45.630;9.418;2023-09-19T05:48:17;19.90;83.70
40756;DHT22;26461;45.630;9.418;2023-09-19T05:51:22;20.00;83.60
40756;DHT22;26461;45.630;9.418;2023-09-19T05:54:28;20.00;83.90
40756;DHT22;26461;45.630;9.418;2023-09-19T05:57:34;20.00;83.50
40756;DHT22;26461;45.630;9.418;2023-09-19T06:00:45;20.10;84.50
40756;DHT22;26461;45.630;9.418;2023-09-19T06:03:57;20.10;83.70
40756;DHT22;26461;45.630;9.418;2023-09-19T06:07:05;20.10;83.70
40756;DHT22;26461;45.630;9.418;2023-09-19T06:10:10;20.20;83.00
40756;DHT22;26461;45.630;9.418;2023-09-19T06:13:16;20.30;83.00
40756;DHT22;26461;45.630;9.418;2023-09-19T06:16:22;20.30;82.80
40756;DHT22;26461;45.630;9.418;2023-09-19T06:19:27;20.30;82.90
40756;DHT22;26461;45.630;9.418;2023-09-19T06:22:32;20.40;83.10
40756;DHT22;26461;45.630;9.418;2023-09-19T06:25:37;20.40;83.80
40756;DHT22;26461;45.630;9.418;2023-09-19T06:28:48;20.40;83.60
40756;DHT22;26461;45.630;9.418;2023-09-19T06:31:53;20.40;83.60
40756;DHT22;26461;45.630;9.418;2023-09-19T06:34:58;20.40;83.80
40756;DHT22;26461;45.630;9.418;2023-09-19T06:38:04;20.50;84.20
40756;DHT22;26461;45.630;9.418;2023-09-19T06:41:10;20.50;84.20
40756;DHT22;26461;45.630;9.418;2023-09-19T06:44:22;20.50;84.30
40756;DHT22;26461;45.630;9.418;2023-09-19T06:47:29;20.50;84.60
40756;DHT22;26461;45.630;9.418;2023-09-19T06:50:35;20.50;84.80
40756;DHT22;26461;45.630;9.418;2023-09-19T06:53:41;20.50;85.10
40756;DHT22;26461;45.630;9.418;2023-09-19T06:56:46;20.60;85.10
40756;DHT22;26461;45.630;9.418;2023-09-19T06:59:51;20.60;85.10
40756;DHT22;26461;45.630;9.418;2023-09-19T07:03:04;20.60;85.20
40756;DHT22;26461;45.630;9.418;2023-09-19T07:06:18;20.60;85.00
40756;DHT22;26461;45.630;9.418;2023-09-19T07:09:39;20.70;84.60
40756;DHT22;26461;45.630;9.418;2023-09-19T07:12:44;20.70;84.50
40756;DHT22;26461;45.630;9.418;2023-09-19T07:15:50;20.70;84.60
40756;DHT22;26461;45.630;9.418;2023-09-19T07:18:58;20.60;84.10
40756;DHT22;26461;45.630;9.418;2023-09-19T07:22:03;20.70;84.20
40756;DHT22;26461;45.630;9.418;2023-09-19T07:25:09;20.70;84.30
40756;DHT22;26461;45.630;9.418;2023-09-19T07:28:15;20.80;84.00
40756;DHT22;26461;45.630;9.418;2023-09-19T07:31:23;20.70;84.00
40756;DHT22;26461;45.630;9.418;2023-09-19T07:34:35;20.80;84.00
40756;DHT22;26461;45.630;9.418;2023-09-19T07:37:40;20.80;83.80
40756;DHT22;26461;45.630;9.418;2023-09-19T07:40:46;20.80;84.20
40756;DHT22;26461;45.630;9.418;2023-09-19T07:43:52;20.90;84.60
40756;DHT22;26461;45.630;9.418;2023-09-19T07:46:57;20.90;84.80
40756;DHT22;26461;45.630;9.418;2023-09-19T07:50:08;20.90;85.00
40756;DHT22;26461;45.630;9.418;2023-09-19T07:53:19;20.90;84.90
40756;DHT22;26461;45.630;9.418;2023-09-19T07:56:29;20.90;84.80
40756;DHT22;26461;45.630;9.418;2023-09-19T07:59:39;20.90;85.00
40756;DHT22;26461;45.630;9.418;2023-09-19T08:02:56;21.00;85.00
40756;DHT22;26461;45.630;9.418;2023-09-19T08:06:01;21.00;85.00
40756;DHT22;26461;45.630;9.418;2023-09-19T08:09:09;21.00;85.00
40756;DHT22;26461;45.630;9.418;2023-09-19T08:12:36;21.00;84.80
40756;DHT22;26461;45.630;9.418;2023-09-19T08:15:46;21.10;84.70
40756;DHT22;26461;45.630;9.418;2023-09-19T08:18:52;21.10;84.20
40756;DHT22;26461;45.630;9.418;2023-09-19T08:21:59;21.10;84.00
40756;DHT22;26461;45.630;9.418;2023-09-19T08:25:06;21.10;84.20
40756;DHT22;26461;45.630;9.418;2023-09-19T08:28:12;21.20;84.60
40756;DHT22;26461;45.630;9.418;2023-09-19T08:31:23;21.20;84.40
40756;DHT22;26461;45.630;9.418;2023-09-19T08:34:28;21.20;84.30
40756;DHT22;26461;45.630;9.418;2023-09-19T08:37:35;21.20;84.20
40756;DHT22;26461;45.630;9.418;2023-09-19T08:40:40;21.30;84.30
40756;DHT22;26461;45.630;9.418;2023-09-19T08:43:59;21.30;84.40
40756;DHT22;26461;45.630;9.418;2023-09-19T08:47:15;21.30;84.30
40756;DHT22;26461;45.630;9.418;2023-09-19T08:50:29;21.30;84.10
40756;DHT22;26461;45.630;9.418;2023-09-19T08:53:58;21.30;84.00
40756;DHT22;26461;45.630;9.418;2023-09-19T08:57:11;21.40;84.00
40756;DHT22;26461;45.630;9.418;2023-09-19T09:00:16;21.40;83.70
40756;DHT22;26461;45.630;9.418;2023-09-19T09:03:23;21.40;84.00
40756;DHT22;26461;45.630;9.418;2023-09-19T09:06:31;21.50;84.70
40756;DHT22;26461;45.630;9.418;2023-09-19T09:09:38;21.50;84.00
40756;DHT22;26461;45.630;9.418;2023-09-19T09:12:51;21.60;83.80
40756;DHT22;26461;45.630;9.418;2023-09-19T09:15:56;21.60;83.20
40756;DHT22;26461;45.630;9.418;2023-09-19T09:19:24;21.60;83.10
40756;DHT22;26461;45.630;9.418;2023-09-19T09:22:30;21.70;83.40
40756;DHT22;26461;45.630;9.418;2023-09-19T09:25:55;21.70;83.30
40756;DHT22;26461;45.630;9.418;2023-09-19T09:29:12;21.80;83.20
40756;DHT22;26461;45.630;9.418;2023-09-19T09:32:36;21.80;83.30
40756;DHT22;26461;45.630;9.418;2023-09-19T09:35:56;21.80;83.20
40756;DHT22;26461;45.630;9.418;2023-09-19T09:39:03;21.90;83.10
40756;DHT22;26461;45.630;9.418;2023-09-19T09:45:37;22.00;82.30
40756;DHT22;26461;45.630;9.418;2023-09-19T09:48:42;22.00;82.80
40756;DHT22;26461;45.630;9.418;2023-09-19T09:55:12;22.00;81.40
40756;DHT22;26461;45.630;9.418;2023-09-19T09:58:17;22.10;81.80
40756;DHT22;26461;45.630;9.418;2023-09-19T10:01:46;22.10;81.50
40756;DHT22;26461;45.630;9.418;2023-09-19T10:04:52;22.10;81.90
40756;DHT22;26461;45.630;9.418;2023-09-19T10:08:18;22.20;81.90
40756;DHT22;26461;45.630;9.418;2023-09-19T10:11:24;22.20;82.10
40756;DHT22;26461;45.630;9.418;2023-09-19T10:14:38;22.20;81.00
40756;DHT22;26461;45.630;9.418;2023-09-19T10:17:49;22.20;80.60
40756;DHT22;26461;45.630;9.418;2023-09-19T10:20:56;22.20;80.00
40756;DHT22;26461;45.630;9.418;2023-09-19T10:24:03;22.30;80.00
40756;DHT22;26461;45.630;9.418;2023-09-19T10:27:13;22.30;79.70
40756;DHT22;26461;45.630;9.418;2023-09-19T10:30:27;22.30;79.70
40756;DHT22;26461;45.630;9.418;2023-09-19T10:33:36;22.30;80.20
40756;DHT22;26461;45.630;9.418;2023-09-19T10:36:48;22.30;79.90
40756;DHT22;26461;45.630;9.418;2023-09-19T10:40:01;22.30;80.50
40756;DHT22;26461;45.630;9.418;2023-09-19T10:43:13;22.40;80.50
40756;DHT22;26461;45.630;9.418;2023-09-19T10:46:24;22.40;79.70
40756;DHT22;26461;45.630;9.418;2023-09-19T10:49:30;22.50;80.00
40756;DHT22;26461;45.630;9.418;2023-09-19T10:52:45;22.50;80.10
40756;DHT22;26461;45.630;9.418;2023-09-19T10:55:56;22.60;79.90
40756;DHT22;26461;45.630;9.418;2023-09-19T10:59:14;22.60;80.00
40756;DHT22;26461;45.630;9.418;2023-09-19T11:02:31;22.60;79.50
40756;DHT22;26461;45.630;9.418;2023-09-19T11:05:37;22.70;79.10
40756;DHT22;26461;45.630;9.418;2023-09-19T11:09:00;22.70;78.90
40756;DHT22;26461;45.630;9.418;2023-09-19T11:19:11;22.70;78.00
40756;DHT22;26461;45.630;9.418;2023-09-19T11:22:18;22.80;77.40
40756;DHT22;26461;45.630;9.418;2023-09-19T11:28:47;22.80;77.40
40756;DHT22;26461;45.630;9.418;2023-09-19T11:31:59;22.80;77.20
40756;DHT22;26461;45.630;9.418;2023-09-19T11:35:08;22.80;76.70
40756;DHT22;26461;45.630;9.418;2023-09-19T11:38:14;22.90;76.50
40756;DHT22;26461;45.630;9.418;2023-09-19T11:41:41;22.90;76.20
40756;DHT22;26461;45.630;9.418;2023-09-19T11:44:49;23.00;75.80
40756;DHT22;26461;45.630;9.418;2023-09-19T11:47:56;23.00;75.40
40756;DHT22;26461;45.630;9.418;2023-09-19T11:51:16;23.10;75.30
40756;DHT22;26461;45.630;9.418;2023-09-19T11:54:29;23.10;73.50
40756;DHT22;26461;45.630;9.418;2023-09-19T11:57:36;23.10;73.60
40756;DHT22;26461;45.630;9.418;2023-09-19T12:00:45;23.20;73.60
40756;DHT22;26461;45.630;9.418;2023-09-19T12:03:54;23.30;72.90
40756;DHT22;26461;45.630;9.418;2023-09-19T12:07:01;23.30;72.50
40756;DHT22;26461;45.630;9.418;2023-09-19T12:10:08;23.40;72.90
40756;DHT22;26461;45.630;9.418;2023-09-19T12:13:20;23.40;72.30
40756;DHT22;26461;45.630;9.418;2023-09-19T12:16:26;23.50;71.60
40756;DHT22;26461;45.630;9.418;2023-09-19T12:19:35;23.50;70.90
40756;DHT22;26461;45.630;9.418;2023-09-19T12:22:45;23.60;71.60
40756;DHT22;26461;45.630;9.418;2023-09-19T12:25:52;23.60;70.80
40756;DHT22;26461;45.630;9.418;2023-09-19T12:28:59;23.70;70.40
40756;DHT22;26461;45.630;9.418;2023-09-19T12:32:06;23.70;70.70
40756;DHT22;26461;45.630;9.418;2023-09-19T12:35:28;23.80;70.40
40756;DHT22;26461;45.630;9.418;2023-09-19T12:38:38;23.80;69.30
40756;DHT22;26461;45.630;9.418;2023-09-19T12:41:52;23.90;69.40
40756;DHT22;26461;45.630;9.418;2023-09-19T12:45:01;24.00;69.70
40756;DHT22;26461;45.630;9.418;2023-09-19T12:53:57;24.20;69.10
40756;DHT22;26461;45.630;9.418;2023-09-19T12:57:07;24.20;67.20
40756;DHT22;26461;45.630;9.418;2023-09-19T13:00:18;24.20;67.40
40756;DHT22;26461;45.630;9.418;2023-09-19T13:03:31;24.20;67.70
40756;DHT22;26461;45.630;9.418;2023-09-19T13:06:39;24.30;67.60
40756;DHT22;26461;45.630;9.418;2023-09-19T13:10:03;24.40;67.60
40756;DHT22;26461;45.630;9.418;2023-09-19T13:13:24;24.50;67.60
40756;DHT22;26461;45.630;9.418;2023-09-19T13:16:32;24.60;65.60
40756;DHT22;26461;45.630;9.418;2023-09-19T13:19:50;24.70;65.10
40756;DHT22;26461;45.630;9.418;2023-09-19T13:23:04;24.70;64.90
40756;DHT22;26461;45.630;9.418;2023-09-19T13:26:20;24.90;64.50
40756;DHT22;26461;45.630;9.418;2023-09-19T13:29:29;25.00;63.90
40756;DHT22;26461;45.630;9.418;2023-09-19T13:32:40;25.10;63.30
40756;DHT22;26461;45.630;9.418;2023-09-19T13:35:50;25.10;62.10
40756;DHT22;26461;45.630;9.418;2023-09-19T13:39:00;25.20;62.00
40756;DHT22;26461;45.630;9.418;2023-09-19T13:42:11;25.20;62.20
40756;DHT22;26461;45.630;9.418;2023-09-19T13:45:21;25.30;62.40
40756;DHT22;26461;45.630;9.418;2023-09-19T13:48:34;25.40;62.40
40756;DHT22;26461;45.630;9.418;2023-09-19T13:51:44;25.60;62.40
40756;DHT22;26461;45.630;9.418;2023-09-19T13:54:55;25.70;62.10
40756;DHT22;26461;45.630;9.418;2023-09-19T13:58:08;25.80;61.20
40756;DHT22;26461;45.630;9.418;2023-09-19T14:01:20;25.90;60.90
40756;DHT22;26461;45.630;9.418;2023-09-19T14:04:31;26.00;60.60
40756;DHT22;26461;45.630;9.418;2023-09-19T14:07:41;26.00;60.00
40756;DHT22;26461;45.630;9.418;2023-09-19T14:10:51;26.10;59.70
40756;DHT22;26461;45.630;9.418;2023-09-19T14:14:01;26.20;59.50
40756;DHT22;26461;45.630;9.418;2023-09-19T14:17:11;26.30;59.30
40756;DHT22;26461;45.630;9.418;2023-09-19T14:20:16;26.40;58.70
40756;DHT22;26461;45.630;9.418;2023-09-19T14:23:26;26.50;58.10
40756;DHT22;26461;45.630;9.418;2023-09-19T14:26:31;26.60;58.00
40756;DHT22;26461;45.630;9.418;2023-09-19T14:29:40;26.70;57.70
40756;DHT22;26461;45.630;9.418;2023-09-19T14:32:45;26.80;57.80
40756;DHT22;26461;45.630;9.418;2023-09-19T14:35:55;26.90;57.30
40756;DHT22;26461;45.630;9.418;2023-09-19T14:39:00;27.00;57.30
40756;DHT22;26461;45.630;9.418;2023-09-19T14:42:05;26.90;57.20
40756;DHT22;26461;45.630;9.418;2023-09-19T14:45:11;26.90;57.20
40756;DHT22;26461;45.630;9.418;2023-09-19T14:48:21;26.90;56.70
40756;DHT22;26461;45.630;9.418;2023-09-19T14:51:34;26.80;57.00
40756;DHT22;26461;45.630;9.418;2023-09-19T14:54:45;26.80;57.20
40756;DHT22;26461;45.630;9.418;2023-09-19T14:57:50;26.80;56.90
40756;DHT22;26461;45.630;9.418;2023-09-19T15:01:06;26.80;57.00
40756;DHT22;26461;45.630;9.418;2023-09-19T15:04:16;26.80;56.90
40756;DHT22;26461;45.630;9.418;2023-09-19T15:07:26;26.80;56.90
40756;DHT22;26461;45.630;9.418;2023-09-19T15:10:38;26.90;56.50
40756;DHT22;26461;45.630;9.418;2023-09-19T15:13:45;27.00;56.60
40756;DHT22;26461;45.630;9.418;2023-09-19T15:16:55;27.10;56.50
40756;DHT22;26461;45.630;9.418;2023-09-19T15:20:00;27.10;56.20
40756;DHT22;26461;45.630;9.418;2023-09-19T15:23:11;27.10;56.60
40756;DHT22;26461;45.630;9.418;2023-09-19T15:26:23;27.10;56.70
40756;DHT22;26461;45.630;9.418;2023-09-19T15:29:30;27.20;56.00
40756;DHT22;26461;45.630;9.418;2023-09-19T15:32:35;27.20;55.50
40756;DHT22;26461;45.630;9.418;2023-09-19T15:35:45;27.30;55.30
40756;DHT22;26461;45.630;9.418;2023-09-19T15:39:00;27.30;55.10
40756;DHT22;26461;45.630;9.418;2023-09-19T15:42:05;27.30;54.90
40756;DHT22;26461;45.630;9.418;2023-09-19T15:45:16;27.30;54.90
40756;DHT22;26461;45.630;9.418;2023-09-19T15:48:28;27.40;55.30
40756;DHT22;26461;45.630;9.418;2023-09-19T15:51:39;27.40;55.90
40756;DHT22;26461;45.630;9.418;2023-09-19T15:54:49;27.40;56.00
40756;DHT22;26461;45.630;9.418;2023-09-19T15:58:02;27.50;55.70
40756;DHT22;26461;45.630;9.418;2023-09-19T16:01:12;27.50;55.50
40756;DHT22;26461;45.630;9.418;2023-09-19T16:04:17;27.50;55.60
40756;DHT22;26461;45.630;9.418;2023-09-19T16:07:22;27.50;56.00
40756;DHT22;26461;45.630;9.418;2023-09-19T16:10:28;27.60;56.40
40756;DHT22;26461;45.630;9.418;2023-09-19T16:13:39;27.50;55.90
40756;DHT22;26461;45.630;9.418;2023-09-19T16:16:45;27.60;55.70
40756;DHT22;26461;45.630;9.418;2023-09-19T16:19:50;27.60;55.50
40756;DHT22;26461;45.630;9.418;2023-09-19T16:23:00;27.60;55.60
40756;DHT22;26461;45.630;9.418;2023-09-19T16:26:07;27.60;55.60
40756;DHT22;26461;45.630;9.418;2023-09-19T16:29:18;27.60;55.60
40756;DHT22;26461;45.630;9.418;2023-09-19T16:32:28;27.60;55.80
40756;DHT22;26461;45.630;9.418;2023-09-19T16:35:37;27.60;55.70
40756;DHT22;26461;45.630;9.418;2023-09-19T16:38:48;27.60;55.70
40756;DHT22;26461;45.630;9.418;2023-09-19T16:41:53;27.60;55.50
40756;DHT22;26461;45.630;9.418;2023-09-19T16:44:58;27.60;55.60
40756;DHT22;26461;45.630;9.418;2023-09-19T16:48:09;27.60;56.20
40756;DHT22;26461;45.630;9.418;2023-09-19T16:51:18;27.70;56.50
40756;DHT22;26461;45.630;9.418;2023-09-19T16:54:30;27.70;57.40
40756;DHT22;26461;45.630;9.418;2023-09-19T16:57:40;27.70;56.90
40756;DHT22;26461;45.630;9.418;2023-09-19T17:00:47;27.70;57.00
40756;DHT22;26461;45.630;9.418;2023-09-19T17:03:53;27.70;57.10
40756;DHT22;26461;45.630;9.418;2023-09-19T17:07:03;27.60;57.00
40756;DHT22;26461;45.630;9.418;2023-09-19T17:10:09;27.60;57.10
40756;DHT22;26461;45.630;9.418;2023-09-19T17:13:13;27.50;57.10
40756;DHT22;26461;45.630;9.418;2023-09-19T17:16:18;27.40;57.20
40756;DHT22;26461;45.630;9.418;2023-09-19T17:19:30;27.30;57.20
40756;DHT22;26461;45.630;9.418;2023-09-19T17:22:35;27.20;57.80
40756;DHT22;26461;45.630;9.418;2023-09-19T17:25:40;27.20;57.60
40756;DHT22;26461;45.630;9.418;2023-09-19T17:28:46;27.10;57.80
40756;DHT22;26461;45.630;9.418;2023-09-19T17:31:55;27.00;58.00
40756;DHT22;26461;45.630;9.418;2023-09-19T17:35:00;26.90;58.10
40756;DHT22;26461;45.630;9.418;2023-09-19T17:38:05;26.80;58.30
40756;DHT22;26461;45.630;9.418;2023-09-19T17:41:11;26.70;58.40
40756;DHT22;26461;45.630;9.418;2023-09-19T17:44:22;26.60;58.60
40756;DHT22;26461;45.630;9.418;2023-09-19T17:47:27;26.50;58.80
40756;DHT22;26461;45.630;9.418;2023-09-19T17:50:37;26.50;59.00
40756;DHT22;26461;45.630;9.418;2023-09-19T17:53:48;26.40;59.20
40756;DHT22;26461;45.630;9.418;2023-09-19T17:56:53;26.30;59.30
40756;DHT22;26461;45.630;9.418;2023-09-19T18:00:04;26.20;59.50
40756;DHT22;26461;45.630;9.418;2023-09-19T18:03:18;26.20;59.60
40756;DHT22;26461;45.630;9.418;2023-09-19T18:06:24;26.10;59.60
40756;DHT22;26461;45.630;9.418;2023-09-19T18:09:35;26.00;59.60
40756;DHT22;26461;45.630;9.418;2023-09-19T18:12:46;25.90;59.80
40756;DHT22;26461;45.630;9.418;2023-09-19T18:15:56;25.90;60.10
40756;DHT22;26461;45.630;9.418;2023-09-19T18:19:06;25.90;60.30
40756;DHT22;26461;45.630;9.418;2023-09-19T18:22:10;25.90;60.10
40756;DHT22;26461;45.630;9.418;2023-09-19T18:25:16;25.80;60.30
40756;DHT22;26461;45.630;9.418;2023-09-19T18:28:21;25.80;60.50
40756;DHT22;26461;45.630;9.418;2023-09-19T18:31:27;25.70;60.60
40756;DHT22;26461;45.630;9.418;2023-09-19T18:34:38;25.60;60.80
40756;DHT22;26461;45.630;9.418;2023-09-19T18:37:43;25.60;61.00
40756;DHT22;26461;45.630;9.418;2023-09-19T18:40:55;25.50;61.00
40756;DHT22;26461;45.630;9.418;2023-09-19T18:44:05;25.50;61.20
40756;DHT22;26461;45.630;9.418;2023-09-19T18:47:15;25.50;61.50
40756;DHT22;26461;45.630;9.418;2023-09-19T18:50:20;25.40;61.40
40756;DHT22;26461;45.630;9.418;2023-09-19T18:53:30;25.40;61.30
40756;DHT22;26461;45.630;9.418;2023-09-19T18:56:35;25.40;61.50
40756;DHT22;26461;45.630;9.418;2023-09-19T18:59:43;25.40;61.60
40756;DHT22;26461;45.630;9.418;2023-09-19T19:02:53;25.40;62.10
40756;DHT22;26461;45.630;9.418;2023-09-19T19:05:58;25.30;62.30
40756;DHT22;26461;45.630;9.418;2023-09-19T19:09:07;25.30;62.70
40756;DHT22;26461;45.630;9.418;2023-09-19T19:12:14;25.30;62.90
40756;DHT22;26461;45.630;9.418;2023-09-19T19:15:24;25.30;62.90
